Time;durP1;ratioP1;P1;durP2;ratioP2;P2;SDS_P1;SDS_P2;PMS_P1;PMS_P2;Temp;Humidity;BMP_temperature;BMP_pressure;BME280_temperature;BME280_humidity;BME280_pressure;Samples;Min_cycle;Max_cycle;Signal;HPM_P1;HPM_P2
2022/12/23 00:01:40;;;;;;;18.37;13.73;;;6.30;99.90;;;6.07;84.38;99046.28;5025561;28;20268;-69
2022/12/23 00:04:09;;;;;;;16.73;13.37;;;6.30;99.90;;;6.08;84.71;99051.41;5021783;28;20251;-67
2022/12/23 00:06:38;;;;;;;20.30;13.07;;;6.30;99.90;;;6.07;84.44;99039.47;5023247;28;20206;-68
2022/12/23 00:09:06;;;;;;;20.60;13.27;;;6.30;99.90;;;6.08;84.99;99043.75;5029797;28;20249;-65
2022/12/23 00:15:03;;;;;;;20.83;13.83;;;6.30;99.90;;;6.10;84.95;99048.84;5028567;28;20210;-70
2022/12/23 00:17:11;;;;;;;20.43;13.40;;;6.30;99.90;;;6.10;84.77;99039.44;5027949;28;20260;-67
2022/12/23 00:19:55;;;;;;;22.43;13.10;;;6.30;99.90;;;6.12;84.98;99042.84;5025440;28;20206;-67
2022/12/23 00:23:03;;;;;;;22.20;13.37;;;6.30;99.90;;;6.11;84.92;99043.69;5022205;28;20215;-66
2022/12/23 00:25:13;;;;;;;21.17;13.53;;;6.30;99.90;;;6.12;85.23;99053.09;5020334;28;20223;-67
2022/12/23 00:28:00;;;;;;;18.63;13.33;;;6.30;99.90;;;6.11;85.00;99041.13;5028084;28;20582;-67
2022/12/23 00:30:29;;;;;;;18.60;13.37;;;6.30;99.90;;;6.11;85.11;99051.34;5028676;28;20202;-66
2022/12/23 00:32:57;;;;;;;19.27;13.33;;;6.30;99.90;;;6.08;85.41;99051.41;5018657;28;20227;-66
2022/12/23 00:35:25;;;;;;;19.20;13.80;;;6.30;99.90;;;6.08;85.39;99056.53;5023733;28;20215;-66
2022/12/23 00:37:54;;;;;;;22.47;13.47;;;6.30;99.90;;;6.10;85.55;99057.34;5026950;28;20210;-65
2022/12/23 00:43:09;;;;;;;20.13;12.73;;;6.30;99.90;;;6.09;85.97;99060.78;5023305;28;20711;-64
2022/12/23 00:45:38;;;;;;;24.53;13.93;;;6.30;99.90;;;6.10;85.79;99064.19;5017581;28;20211;-67
2022/12/23 00:50:53;;;;;;;22.47;14.73;;;6.30;99.90;;;6.08;85.94;99061.66;5023004;28;20283;-69
2022/12/23 00:53:22;;;;;;;24.03;15.03;;;6.30;99.90;;;6.07;86.18;99065.03;5028062;28;20707;-69
2022/12/23 00:55:50;;;;;;;21.60;14.60;;;6.20;99.90;;;6.07;86.31;99070.16;5020437;28;20719;-67
2022/12/23 00:58:21;;;;;;;24.70;15.17;;;6.30;99.90;;;6.07;85.99;99070.16;5026278;28;20672;-65
2022/12/23 01:06:22;;;;;;;26.90;16.70;;;6.30;99.90;;;6.05;86.54;99075.31;5022662;28;20233;-66
2022/12/23 01:08:50;;;;;;;26.53;16.67;;;6.30;99.90;;;6.04;86.86;99075.31;5026466;28;20253;-66
2022/12/23 01:11:18;;;;;;;30.03;17.47;;;6.30;99.90;;;6.04;87.12;99077.88;5031413;28;20648;-65
2022/12/23 01:13:49;;;;;;;30.90;17.30;;;6.30;99.90;;;6.05;86.77;99079.56;5030092;28;20226;-65
2022/12/23 01:16:17;;;;;;;26.40;16.57;;;6.30;99.90;;;6.04;87.05;99077.88;5023007;28;20238;-66
2022/12/23 01:18:46;;;;;;;25.27;15.07;;;6.30;99.90;;;6.05;86.72;99087.25;5028560;28;20205;-66
2022/12/23 01:21:14;;;;;;;24.80;15.50;;;6.30;99.90;;;6.02;87.04;99079.59;5032380;28;20213;-68
2022/12/23 01:23:43;;;;;;;27.87;17.53;;;6.30;99.90;;;6.00;87.18;99081.28;5027099;28;20249;-66
2022/12/23 01:26:12;;;;;;;28.60;16.40;;;6.30;99.90;;;6.00;87.16;99087.28;5030339;28;20218;-66
2022/12/23 01:28:40;;;;;;;30.80;17.17;;;6.30;99.90;;;5.99;87.72;99087.28;5024695;28;20238;-66
2022/12/23 01:31:11;;;;;;;24.17;16.23;;;6.30;99.90;;;6.00;87.62;99083.84;5031995;28;20572;-70
2022/12/23 01:33:40;;;;;;;27.17;16.90;;;6.30;99.90;;;5.99;87.61;99100.91;5026855;28;20227;-69
2022/12/23 01:36:10;;;;;;;25.60;15.90;;;6.30;99.90;;;6.00;87.81;99086.41;5029944;28;20246;-65
2022/12/23 01:38:39;;;;;;;32.93;17.00;;;6.30;99.90;;;5.98;87.88;99093.25;5028258;28;20699;-66
2022/12/23 01:41:07;;;;;;;25.80;16.67;;;6.30;99.90;;;5.96;87.73;99092.41;5030709;28;20648;-67
2022/12/23 01:43:47;;;;;;;26.37;15.57;;;6.20;99.90;;;5.97;87.58;99084.75;5029905;28;20714;-67
2022/12/23 01:46:16;;;;;;;28.03;17.07;;;6.30;99.90;;;5.97;87.89;99082.19;5031539;28;20233;-66
2022/12/23 01:48:50;;;;;;;31.53;17.37;;;6.30;99.90;;;5.98;88.10;99083.03;5019785;28;20269;-68
2022/12/23 01:51:24;;;;;;;27.80;17.03;;;6.30;99.90;;;5.98;87.93;99083.03;5018368;28;20246;-66
2022/12/23 01:53:59;;;;;;;28.83;16.90;;;6.30;99.90;;;6.00;87.92;99081.28;5027138;28;20223;-67
2022/12/23 01:56:33;;;;;;;29.27;17.33;;;6.30;99.90;;;5.99;88.13;99090.69;5031516;28;20218;-67
2022/12/23 01:59:08;;;;;;;29.73;16.80;;;6.30;99.90;;;6.02;88.11;99092.38;5028909;28;20772;-67
2022/12/23 02:04:25;;;;;;;31.17;17.83;;;6.30;99.90;;;6.08;88.06;99091.50;5018523;28;20691;-68
2022/12/23 02:09:40;;;;;;;28.27;17.53;;;6.30;99.90;;;6.08;88.16;99092.34;5028432;28;20689;-66
2022/12/23 02:12:40;;;;;;;30.70;17.17;;;6.30;99.90;;;6.10;87.91;99094.88;5030326;28;20207;-65
2022/12/23 02:19:08;;;;;;;27.47;16.27;;;6.30;99.90;;;6.11;88.19;99105.06;5020935;28;20693;-67
2022/12/23 02:22:01;;;;;;;27.63;16.47;;;6.30;99.90;;;6.13;88.15;99111.03;4989190;28;20663;-67
2022/12/23 02:25:27;;;;;;;28.33;16.60;;;6.30;99.90;;;6.13;88.06;99103.34;5026277;28;20531;-69
2022/12/23 02:28:17;;;;;;;26.73;16.07;;;6.40;99.90;;;6.12;87.79;99104.22;4982372;28;20203;-69
2022/12/23 02:30:55;;;;;;;29.80;16.20;;;6.40;99.90;;;6.15;88.60;99109.31;5028231;28;20724;-65
2022/12/23 02:33:48;;;;;;;23.97;15.53;;;6.40;99.90;;;6.13;88.09;99113.59;5031709;28;20206;-68
2022/12/23 02:36:38;;;;;;;27.73;16.20;;;6.40;99.90;;;6.13;88.37;99123.81;5031774;28;20268;-68
2022/12/23 02:39:15;;;;;;;24.87;15.60;;;6.40;99.90;;;6.14;88.06;99122.94;5024549;28;20656;-70
2022/12/23 02:41:54;;;;;;;25.33;15.17;;;6.40;99.90;;;6.16;88.04;99126.34;5028793;28;20569;-65
2022/12/23 02:44:30;;;;;;;25.70;15.83;;;6.40;99.90;;;6.16;88.04;99123.78;5026482;28;20230;-70
2022/12/23 02:47:05;;;;;;;28.07;16.70;;;6.40;99.90;;;6.18;88.66;99123.78;5026384;28;20238;-67
2022/12/23 02:49:38;;;;;;;25.57;16.80;;;6.40;99.90;;;6.17;88.02;99125.47;5028788;28;20229;-67
2022/12/23 02:52:14;;;;;;;25.80;16.37;;;6.40;99.90;;;6.18;88.51;99129.72;5027050;28;20298;-66
2022/12/23 02:54:46;;;;;;;30.03;16.90;;;6.40;99.90;;;6.21;88.01;99134.81;5027560;28;20793;-66
2022/12/23 02:57:17;;;;;;;29.53;17.03;;;6.40;99.90;;;6.22;88.31;99143.34;5029446;28;20206;-67
2022/12/23 02:59:50;;;;;;;26.83;16.77;;;6.40;99.90;;;6.21;87.79;99136.53;5029658;28;20262;-66
2022/12/23 03:02:20;;;;;;;26.20;16.23;;;6.40;99.90;;;6.24;87.88;99136.53;5022603;28;20195;-66
2022/12/23 03:04:49;;;;;;;30.13;17.87;;;6.40;99.90;;;6.24;88.08;99141.63;5027490;28;20534;-66
2022/12/23 03:07:24;;;;;;;29.73;17.70;;;6.40;99.90;;;6.24;88.12;99136.53;5030672;28;20242;-67
2022/12/23 03:10:03;;;;;;;28.77;16.97;;;6.50;99.90;;;6.26;87.74;99138.22;5031019;28;20206;-68
2022/12/23 03:12:51;;;;;;;30.73;17.77;;;6.50;99.90;;;6.28;88.17;99144.13;5023842;28;20202;-68
2022/12/23 03:15:32;;;;;;;29.80;16.57;;;6.50;99.90;;;6.31;88.12;99140.72;5029289;28;20243;-66
2022/12/23 03:18:11;;;;;;;30.53;17.07;;;6.50;99.90;;;6.32;88.11;99133.88;5016241;28;20226;-64
2022/12/23 03:20:49;;;;;;;27.80;16.10;;;6.50;99.90;;;6.32;88.04;99132.16;5024203;28;20276;-69
2022/12/23 03:23:26;;;;;;;27.17;16.10;;;6.50;99.90;;;6.32;88.15;99141.56;5026036;28;20249;-66
2022/12/23 03:26:02;;;;;;;26.83;16.07;;;6.60;99.90;;;6.31;87.65;99137.31;5030418;28;20629;-66
2022/12/23 03:28:39;;;;;;;23.63;15.27;;;6.50;99.90;;;6.33;88.30;99138.13;5028437;28;20260;-69
2022/12/23 03:31:13;;;;;;;28.77;15.47;;;6.50;99.90;;;6.34;88.48;99144.97;5030268;28;20209;-66
2022/12/23 03:33:48;;;;;;;26.13;14.63;;;6.60;99.90;;;6.37;88.27;99147.47;5027857;28;20543;-68
2022/12/23 03:36:23;;;;;;;23.27;14.57;;;6.60;99.90;;;6.38;87.69;99138.97;5027581;28;20698;-70
2022/12/23 03:38:54;;;;;;;23.20;14.20;;;6.60;99.90;;;6.40;87.96;99144.88;5029822;28;20198;-70
2022/12/23 03:41:31;;;;;;;24.77;15.57;;;6.60;99.90;;;6.43;87.87;99150.00;5026843;28;20261;-69
2022/12/23 03:44:05;;;;;;;24.57;15.13;;;6.60;99.90;;;6.44;88.14;99150.00;5021428;28;20823;-67
2022/12/23 03:46:39;;;;;;;21.47;13.00;;;6.60;99.90;;;6.48;87.70;99150.78;5026517;28;20608;-66
2022/12/23 03:49:14;;;;;;;22.43;13.87;;;6.70;99.90;;;6.47;87.50;99151.66;5020912;28;20298;-66
2022/12/23 03:51:51;;;;;;;23.87;14.63;;;6.70;99.90;;;6.50;87.18;99149.06;5023292;28;20572;-66
2022/12/23 03:54:27;;;;;;;20.90;13.80;;;6.70;99.90;;;6.52;86.59;99153.31;5027959;28;20247;-66
2022/12/23 03:57:02;;;;;;;22.30;13.93;;;6.70;99.90;;;6.50;87.06;99154.19;5028887;28;20210;-66
2022/12/23 03:59:34;;;;;;;21.33;13.50;;;6.70;99.90;;;6.50;87.36;99149.91;5019531;28;20284;-64
2022/12/23 04:02:09;;;;;;;21.27;13.53;;;6.70;99.90;;;6.51;86.54;99159.28;5017166;28;20252;-64
2022/12/23 04:04:57;;;;;;;23.30;13.50;;;6.70;99.90;;;6.49;86.96;99150.78;5022046;28;20199;-64
2022/12/23 04:07:31;;;;;;;20.47;13.73;;;6.70;99.90;;;6.49;87.18;99147.38;5025891;28;20252;-65
2022/12/23 04:10:00;;;;;;;19.07;14.03;;;6.70;99.90;;;6.47;86.73;99149.94;5028952;28;20246;-65
2022/12/23 04:12:30;;;;;;;22.83;13.70;;;6.70;99.90;;;6.48;86.52;99159.34;5027229;28;20237;-66
2022/12/23 04:14:59;;;;;;;19.67;14.30;;;6.70;99.90;;;6.48;86.94;99151.66;5027433;28;20227;-68
2022/12/23 04:17:28;;;;;;;20.10;14.40;;;6.70;99.90;;;6.50;86.96;99154.19;5016867;28;20218;-67
2022/12/23 04:19:58;;;;;;;23.13;14.03;;;6.70;99.90;;;6.48;86.13;99151.66;5019844;28;20228;-68
2022/12/23 04:22:27;;;;;;;20.07;13.60;;;6.70;99.90;;;6.49;86.74;99150.78;5023584;28;20211;-66
2022/12/23 04:24:55;;;;;;;23.57;14.57;;;6.70;99.90;;;6.48;86.40;99149.09;5030503;28;20256;-68
2022/12/23 04:27:23;;;;;;;20.93;13.67;;;6.70;99.90;;;6.48;86.34;99153.34;5028453;28;20213;-65
2022/12/23 04:29:52;;;;;;;21.47;13.87;;;6.70;99.90;;;6.47;86.50;99154.22;5033810;28;20233;-65
2022/12/23 04:32:20;;;;;;;22.50;14.50;;;6.70;99.90;;;6.49;86.34;99162.72;5030756;28;20264;-65
2022/12/23 04:34:49;;;;;;;22.23;14.07;;;6.70;99.90;;;6.48;85.77;99167.00;5032813;28;20238;-68
2022/12/23 04:37:18;;;;;;;21.90;13.20;;;6.60;99.90;;;6.44;85.96;99154.22;5028616;28;20652;-65
2022/12/23 04:39:47;;;;;;;20.20;13.57;;;6.60;99.90;;;6.45;86.14;99174.72;5032045;28;20260;-65
2022/12/23 04:42:15;;;;;;;18.63;13.23;;;6.60;99.90;;;6.44;86.22;99169.59;5030557;28;20675;-66
2022/12/23 04:44:44;;;;;;;22.33;14.00;;;6.60;99.90;;;6.41;86.11;99159.41;5030806;28;20272;-69
2022/12/23 04:47:12;;;;;;;19.77;14.07;;;6.60;99.90;;;6.40;85.94;99163.66;5027805;28;20268;-68
2022/12/23 04:49:40;;;;;;;21.60;14.37;;;6.60;99.90;;;6.35;85.36;99160.28;5031308;28;20672;-67
2022/12/23 04:52:09;;;;;;;18.83;12.90;;;6.50;99.90;;;6.32;85.61;99164.59;5026891;28;20667;-69
2022/12/23 04:54:39;;;;;;;18.23;13.03;;;6.50;99.90;;;6.32;85.86;99162.03;5025728;28;20629;-68
2022/12/23 04:57:14;;;;;;;21.77;14.10;;;6.50;99.90;;;6.27;85.63;99157.81;5027776;28;20626;-66
2022/12/23 04:59:43;;;;;;;18.47;12.87;;;6.40;99.90;;;6.25;85.67;99158.66;5030649;28;20226;-67
2022/12/23 05:02:11;;;;;;;21.67;14.93;;;6.40;99.90;;;6.23;85.76;99170.63;5026302;28;20235;-65
2022/12/23 05:04:40;;;;;;;19.20;13.20;;;6.40;99.90;;;6.23;85.41;99171.47;5029765;28;20317;-65
2022/12/23 05:07:09;;;;;;;18.03;13.27;;;6.40;99.90;;;6.23;85.67;99171.47;5033091;28;20206;-65
2022/12/23 05:09:39;;;;;;;21.37;14.20;;;6.40;99.90;;;6.23;85.86;99175.75;5030038;28;20245;-67
2022/12/23 05:12:07;;;;;;;19.37;13.97;;;6.40;99.90;;;6.22;85.57;99185.16;5028813;28;20917;-67
2022/12/23 05:14:35;;;;;;;18.30;13.37;;;6.40;99.90;;;6.20;85.50;99181.72;5031123;28;20207;-64
2022/12/23 05:17:04;;;;;;;18.40;13.33;;;6.40;99.90;;;6.17;85.69;99186.88;5032920;28;20637;-66
2022/12/23 05:19:35;;;;;;;18.37;13.53;;;6.40;99.90;;;6.19;85.50;99180.03;5027305;28;20218;-67
2022/12/23 05:22:03;;;;;;;18.57;12.83;;;6.40;99.90;;;6.18;85.11;99192.81;5032484;28;20660;-65
2022/12/23 05:24:32;;;;;;;18.70;12.83;;;6.30;99.90;;;6.17;85.19;99188.59;5023568;28;20206;-65
2022/12/23 05:27:02;;;;;;;17.87;12.57;;;6.30;99.90;;;6.14;85.12;99192.00;5032359;28;20702;-66
2022/12/23 05:29:30;;;;;;;18.87;12.93;;;6.30;99.90;;;6.14;85.21;99192.00;5029780;28;20256;-66
2022/12/23 05:31:58;;;;;;;18.30;13.10;;;6.30;99.90;;;6.14;85.17;99197.13;5020301;28;20211;-66
2022/12/23 05:34:27;;;;;;;18.13;12.87;;;6.30;99.90;;;6.16;84.93;99189.44;5021552;28;20226;-65
2022/12/23 05:36:55;;;;;;;18.37;12.53;;;6.40;99.90;;;6.17;85.02;99191.13;5030392;28;20226;-66
2022/12/23 05:39:24;;;;;;;17.63;12.50;;;6.30;99.90;;;6.17;84.89;99191.13;5027691;28;20214;-67
2022/12/23 05:41:52;;;;;;;16.63;12.73;;;6.30;99.90;;;6.16;84.49;99197.97;5025335;28;20603;-67
2022/12/23 05:44:22;;;;;;;17.83;13.00;;;6.30;99.90;;;6.16;84.76;99197.97;5023819;28;20242;-70
2022/12/23 05:46:51;;;;;;;17.27;12.80;;;6.30;99.90;;;6.12;84.79;99191.19;5030188;28;20717;-67
2022/12/23 05:49:19;;;;;;;18.93;12.53;;;6.30;99.90;;;6.16;85.08;99203.09;5024852;28;20203;-65
2022/12/23 05:51:48;;;;;;;19.10;12.40;;;6.40;99.90;;;6.14;84.24;99204.78;5029198;28;20266;-66
2022/12/23 05:54:16;;;;;;;16.57;12.27;;;6.30;99.90;;;6.12;84.56;99210.78;5030279;28;20505;-66
2022/12/23 05:56:44;;;;;;;15.03;12.00;;;6.30;99.90;;;6.09;84.57;99210.81;5031546;28;20230;-69
2022/12/23 05:59:13;;;;;;;18.93;12.70;;;6.30;99.90;;;6.09;84.14;99208.25;5026721;28;20268;-67
2022/12/23 06:01:43;;;;;;;16.53;12.13;;;6.30;99.90;;;6.09;84.65;99214.22;5028264;28;20237;-69
2022/12/23 06:04:11;;;;;;;18.27;12.47;;;6.30;99.90;;;6.07;84.71;99221.03;5021509;28;20626;-68
2022/12/23 06:06:40;;;;;;;17.43;13.03;;;6.30;99.90;;;6.07;84.69;99217.63;5031737;28;20206;-67
2022/12/23 06:09:10;;;;;;;19.03;12.90;;;6.20;99.90;;;6.05;84.52;99222.78;5026932;28;20265;-69
2022/12/23 06:11:38;;;;;;;17.03;12.77;;;6.20;99.90;;;6.03;84.21;99216.81;5026745;28;20329;-68
2022/12/23 06:14:07;;;;;;;18.03;12.70;;;6.20;99.90;;;5.99;84.70;99210.84;5022274;28;20222;-68
2022/12/23 06:16:35;;;;;;;22.40;13.77;;;6.20;99.90;;;5.97;84.70;99220.25;5018662;28;20441;-67
2022/12/23 06:19:05;;;;;;;20.77;12.70;;;6.10;99.90;;;5.94;84.66;99219.44;5022005;28;20529;-69
2022/12/23 06:21:34;;;;;;;18.33;13.17;;;6.10;99.90;;;5.93;84.69;99221.16;5029149;28;20206;-69
2022/12/23 06:24:03;;;;;;;21.03;14.07;;;6.10;99.90;;;5.93;84.39;99227.94;5025776;28;20680;-68
2022/12/23 06:26:32;;;;;;;16.57;13.43;;;6.10;99.90;;;5.94;84.76;99234.78;5030860;28;20203;-70
2022/12/23 06:29:01;;;;;;;19.63;13.50;;;6.10;99.90;;;5.93;84.84;99228.81;5030507;28;20512;-68
2022/12/23 06:31:29;;;;;;;19.57;13.33;;;6.10;99.90;;;5.94;85.05;99239.88;5023017;28;20204;-69
2022/12/23 06:33:58;;;;;;;21.53;14.43;;;6.10;99.90;;;5.93;84.93;99238.16;5017544;28;20211;-69
2022/12/23 06:36:27;;;;;;;20.07;14.80;;;6.10;99.90;;;5.94;85.06;99239.88;5028938;28;20261;-67
2022/12/23 06:38:56;;;;;;;21.73;15.40;;;6.10;99.90;;;5.94;85.10;99238.19;5031889;28;20242;-67
2022/12/23 06:41:24;;;;;;;23.10;15.67;;;6.10;99.90;;;5.94;85.24;99234.78;5026371;28;20679;-69
2022/12/23 06:43:53;;;;;;;23.33;16.20;;;6.10;99.90;;;5.96;85.05;99243.25;5024113;28;20260;-67
2022/12/23 06:46:22;;;;;;;22.93;16.50;;;6.10;99.90;;;5.96;84.72;99244.13;5025401;28;20206;-68
2022/12/23 06:48:50;;;;;;;22.70;16.27;;;6.10;99.90;;;5.95;84.74;99244.13;5025112;28;20268;-68
2022/12/23 06:51:19;;;;;;;21.23;15.00;;;6.00;99.90;;;5.93;84.66;99246.72;5024944;28;20241;-69
2022/12/23 06:53:49;;;;;;;19.60;15.20;;;6.10;99.90;;;5.92;85.06;99257.78;5028411;28;20221;-69
2022/12/23 06:56:17;;;;;;;20.80;15.17;;;6.10;99.90;;;5.91;84.99;99255.22;5024254;28;20219;-67
2022/12/23 06:58:46;;;;;;;20.37;13.97;;;6.10;99.90;;;5.91;84.84;99262.88;5028043;28;20615;-69
2022/12/23 07:01:14;;;;;;;21.73;15.43;;;6.10;99.90;;;5.94;85.13;99257.78;5022009;28;20222;-69
2022/12/23 07:03:43;;;;;;;21.97;14.33;;;6.10;99.90;;;5.97;85.03;99257.78;5019174;28;20204;-69
2022/12/23 07:06:11;;;;;;;17.30;13.63;;;6.10;99.90;;;5.98;84.70;99256.91;5024375;28;20233;-70
2022/12/23 07:08:40;;;;;;;19.90;13.33;;;6.10;99.90;;;5.98;84.65;99265.41;5021567;28;20203;-70
2022/12/23 07:11:10;;;;;;;21.23;14.30;;;6.10;99.90;;;5.96;84.73;99269.69;5025967;28;20749;-68
2022/12/23 07:13:38;;;;;;;19.43;13.80;;;6.10;99.90;;;6.00;84.60;99270.50;5020640;28;20261;-70
2022/12/23 07:16:09;;;;;;;21.07;14.57;;;6.10;99.90;;;6.01;84.97;99264.56;5029205;28;20245;-70
2022/12/23 07:18:37;;;;;;;19.10;14.87;;;6.20;99.90;;;6.04;84.28;99267.09;5026713;28;20198;-68
2022/12/23 07:21:06;;;;;;;22.77;15.17;;;6.20;99.90;;;6.09;84.38;99272.19;5024002;28;20252;-67
2022/12/23 07:23:47;;;;;;;20.97;13.47;;;6.20;99.90;;;6.11;84.35;99276.41;5018170;28;20231;-70
2022/12/23 07:26:17;;;;;;;18.80;13.47;;;6.20;99.90;;;6.15;84.35;99265.34;5020331;28;20237;-67
2022/12/23 07:28:47;;;;;;;17.23;13.13;;;6.30;99.90;;;6.18;84.05;99267.00;5024590;28;20211;-69
2022/12/23 07:31:15;;;;;;;21.00;15.93;;;6.30;99.90;;;6.17;84.01;99262.75;5022708;28;20458;-71
2022/12/23 07:33:44;;;;;;;17.73;12.53;;;6.30;99.90;;;6.16;83.64;99261.91;5026896;28;20214;-69
2022/12/23 07:36:14;;;;;;;17.00;12.70;;;6.30;99.90;;;6.17;83.99;99262.75;5019957;28;20207;-71
2022/12/23 07:38:42;;;;;;;18.67;13.63;;;6.30;99.90;;;6.19;83.17;99258.50;5031925;28;20660;-69
2022/12/23 07:41:11;;;;;;;17.80;13.10;;;6.30;99.90;;;6.22;83.53;99269.56;5029341;28;20217;-70
2022/12/23 07:43:41;;;;;;;17.43;13.50;;;6.40;99.90;;;6.20;82.97;99258.47;5029423;28;20219;-71
2022/12/23 07:46:10;;;;;;;20.77;12.83;;;6.30;99.90;;;6.19;82.90;99254.22;5025277;28;20206;-69
2022/12/23 07:48:40;;;;;;;17.20;13.10;;;6.30;99.90;;;6.20;82.57;99255.06;5027199;28;20256;-69
2022/12/23 07:51:10;;;;;;;19.93;13.50;;;6.30;99.90;;;6.20;82.63;99249.94;5024641;28;20243;-69
2022/12/23 07:53:38;;;;;;;17.90;13.60;;;6.30;99.90;;;6.19;82.70;99254.22;5028950;28;20210;-68
2022/12/23 07:56:07;;;;;;;17.93;12.93;;;6.30;99.90;;;6.18;82.34;99249.94;5022263;28;20684;-70
2022/12/23 07:58:36;;;;;;;18.80;13.53;;;6.30;99.90;;;6.20;82.68;99260.19;5025385;28;20230;-67
2022/12/23 08:01:07;;;;;;;21.63;14.27;;;6.30;99.90;;;6.22;82.25;99261.00;5023646;28;20277;-70
2022/12/23 08:03:37;;;;;;;19.50;13.63;;;6.40;99.90;;;6.24;82.48;99280.59;5022705;28;20672;-71
2022/12/23 08:06:11;;;;;;;16.77;12.63;;;6.40;99.90;;;6.22;81.83;99277.22;5022690;28;20202;-72
2022/12/23 08:08:41;;;;;;;16.37;13.30;;;6.40;99.90;;;6.22;82.48;99279.78;5021102;28;20242;-70
2022/12/23 08:11:12;;;;;;;16.03;12.40;;;6.40;99.90;;;6.23;82.21;99275.50;5027357;28;20250;-67
2022/12/23 08:13:43;;;;;;;21.43;13.73;;;6.30;99.90;;;6.20;81.66;99268.69;5023159;28;20198;-69
2022/12/23 08:16:13;;;;;;;17.37;12.83;;;6.30;99.90;;;6.20;81.74;99268.69;5020385;28;20281;-68
2022/12/23 08:18:42;;;;;;;20.37;13.13;;;6.40;99.90;;;6.21;81.78;99275.50;5024761;28;20570;-70
2022/12/23 08:21:16;;;;;;;17.27;12.57;;;6.40;99.90;;;6.22;81.98;99282.34;5016536;28;20609;-68
2022/12/23 08:23:45;;;;;;;19.67;14.40;;;6.40;99.90;;;6.23;82.30;99268.69;5024426;28;20209;-69
2022/12/23 08:26:16;;;;;;;18.83;14.10;;;6.40;99.90;;;6.27;82.00;99274.63;5028067;28;20210;-67
2022/12/23 08:28:46;;;;;;;18.27;13.50;;;6.40;99.90;;;6.27;81.41;99275.47;5026061;28;20204;-68
2022/12/23 08:31:19;;;;;;;19.47;13.73;;;6.40;99.90;;;6.31;81.68;99275.47;5020913;28;20210;-64
2022/12/23 08:33:51;;;;;;;17.80;13.33;;;6.40;99.90;;;6.32;81.74;99266.91;5023406;28;20272;-65
2022/12/23 08:36:23;;;;;;;19.97;13.47;;;6.50;99.90;;;6.34;81.77;99266.06;5024802;28;20272;-68
2022/12/23 08:38:54;;;;;;;19.17;13.70;;;6.50;99.90;;;6.37;80.93;99265.16;5020072;28;20218;-68
2022/12/23 08:41:27;;;;;;;18.43;13.13;;;6.50;99.90;;;6.37;81.19;99263.47;5023227;28;20230;-68
2022/12/23 08:43:57;;;;;;;17.33;13.57;;;6.50;99.90;;;6.43;80.90;99258.31;5027606;28;20199;-68
2022/12/23 08:46:27;;;;;;;18.73;13.80;;;6.60;99.90;;;6.48;81.18;99258.25;5024125;28;20203;-67
2022/12/23 08:48:56;;;;;;;17.23;13.73;;;6.60;99.90;;;6.52;80.99;99258.25;5026526;28;20207;-67
2022/12/23 08:51:26;;;;;;;18.67;14.93;;;6.70;99.90;;;6.58;81.08;99254.78;5021293;28;20293;-67
2022/12/23 08:53:57;;;;;;;19.60;13.67;;;6.70;99.90;;;6.64;80.37;99253.88;5020421;28;20815;-65
2022/12/23 08:56:31;;;;;;;18.07;12.93;;;6.80;99.90;;;6.68;80.65;99241.03;5027395;28;20328;-66
2022/12/23 08:59:00;;;;;;;20.00;13.77;;;6.90;99.90;;;6.74;80.37;99238.44;5029242;28;20211;-66
2022/12/23 09:01:34;;;;;;;17.50;12.90;;;6.90;99.90;;;6.76;80.25;99233.28;5028145;28;20229;-66
2022/12/23 09:04:04;;;;;;;16.70;12.23;;;6.90;99.90;;;6.82;80.47;99233.25;5023282;28;20627;-64
2022/12/23 09:06:36;;;;;;;16.90;12.67;;;6.90;99.90;;;6.83;80.11;99231.53;5018173;28;20272;-66
2022/12/23 09:09:05;;;;;;;17.10;13.17;;;7.00;99.90;;;6.86;80.15;99231.50;5024290;28;20218;-66
2022/12/23 09:11:34;;;;;;;17.03;11.63;;;7.00;99.90;;;6.88;80.07;99235.72;5022053;28;20206;-66
2022/12/23 09:14:04;;;;;;;17.63;12.87;;;7.00;99.90;;;6.88;79.45;99233.16;5029285;28;20305;-67
2022/12/23 09:16:34;;;;;;;20.27;13.40;;;7.00;99.90;;;6.87;79.65;99221.22;5027562;28;20203;-66
2022/12/23 09:19:03;;;;;;;19.20;13.43;;;7.00;99.90;;;6.89;79.63;99221.25;5029768;28;20642;-66
2022/12/23 09:21:32;;;;;;;19.33;12.83;;;7.00;99.90;;;6.88;79.57;99217.81;5027069;28;20602;-67
2022/12/23 09:24:00;;;;;;;17.93;12.97;;;7.00;99.90;;;6.89;79.38;99221.25;5023499;28;20202;-67
2022/12/23 09:26:31;;;;;;;17.90;13.47;;;7.00;99.90;;;6.86;79.52;99219.53;5026899;28;20257;-66
2022/12/23 09:29:00;;;;;;;19.70;14.63;;;7.00;99.90;;;6.86;79.52;99216.13;5030961;28;20233;-67
2022/12/23 09:31:29;;;;;;;22.10;14.27;;;7.00;99.90;;;6.86;79.65;99199.06;5022506;28;20209;-68
2022/12/23 09:34:06;;;;;;;20.10;14.50;;;7.00;99.90;;;6.83;79.37;99208.47;5024712;28;20206;-70
2022/12/23 09:36:34;;;;;;;20.53;14.57;;;7.00;99.90;;;6.80;79.52;99200.81;5024512;28;20203;-64
2022/12/23 09:39:03;;;;;;;20.67;14.27;;;6.90;99.90;;;6.82;79.71;99194.00;5029035;28;20284;-66
2022/12/23 09:41:53;;;;;;;21.57;14.17;;;7.00;99.90;;;6.82;79.92;99191.44;5020177;28;20561;-66
2022/12/23 09:44:40;;;;;;;21.70;14.83;;;7.00;99.90;;;6.81;79.88;99190.56;5026530;28;20667;-68
2022/12/23 09:47:14;;;;;;;22.93;14.23;;;7.00;99.90;;;6.83;79.98;99190.56;5020762;28;20242;-66
2022/12/23 09:49:48;;;;;;;20.83;14.83;;;7.00;99.90;;;6.83;79.30;99188.84;5024912;28;20215;-67
2022/12/23 09:52:25;;;;;;;21.03;14.43;;;7.00;99.90;;;6.83;79.73;99188.00;5022121;28;20264;-70
2022/12/23 09:54:55;;;;;;;20.90;14.23;;;7.00;99.90;;;6.81;79.54;99182.88;5027493;28;20207;-68
2022/12/23 09:57:35;;;;;;;21.53;14.57;;;7.00;99.90;;;6.76;79.47;99171.84;5024237;28;20257;-67
2022/12/23 10:00:11;;;;;;;20.40;13.97;;;6.90;99.90;;;6.77;79.80;99176.97;5028904;28;20238;-67
2022/12/23 10:02:55;;;;;;;21.63;14.80;;;6.90;99.90;;;6.77;80.30;99176.09;5025885;28;20203;-67
2022/12/23 10:05:35;;;;;;;25.17;15.20;;;6.90;99.90;;;6.74;79.92;99173.59;5023237;28;20206;-67
2022/12/23 10:08:12;;;;;;;20.17;14.30;;;6.90;99.90;;;6.74;79.78;99171.88;5021462;28;20207;-70
2022/12/23 10:10:45;;;;;;;20.93;14.57;;;6.90;99.90;;;6.71;79.83;99183.84;5020668;28;20202;-67
2022/12/23 10:13:25;;;;;;;23.77;16.33;;;6.90;99.90;;;6.70;79.97;99172.78;5021075;28;20205;-66
2022/12/23 10:15:58;;;;;;;24.10;16.03;;;6.90;99.90;;;6.68;80.17;99171.94;5026043;28;20253;-66
2022/12/23 10:18:41;;;;;;;23.73;16.47;;;6.90;99.90;;;6.67;80.39;99171.97;5027141;28;20210;-66
2022/12/23 10:21:18;;;;;;;23.03;15.63;;;6.80;99.90;;;6.64;80.11;99160.03;5025551;28;20207;-66
2022/12/23 10:23:52;;;;;;;19.23;14.23;;;6.80;99.90;;;6.63;80.55;99171.13;5024095;28;20202;-68
2022/12/23 10:26:31;;;;;;;20.07;14.87;;;6.80;99.90;;;6.63;80.58;99171.13;5022617;28;20207;-66
2022/12/23 10:29:10;;;;;;;21.60;13.90;;;6.80;99.90;;;6.60;80.80;99166.03;5028173;28;20214;-66
2022/12/23 10:32:00;;;;;;;23.67;14.33;;;6.80;99.90;;;6.62;80.98;99169.41;5024092;28;20207;-65
2022/12/23 10:34:43;;;;;;;22.60;15.17;;;6.80;99.90;;;6.57;80.66;99154.97;5030615;28;20206;-67
2022/12/23 10:37:25;;;;;;;22.13;14.57;;;6.70;99.90;;;6.57;80.93;99160.94;5025352;28;20195;-66
2022/12/23 10:40:14;;;;;;;29.33;16.20;;;6.80;99.90;;;6.56;81.09;99149.03;5017705;28;20215;-67
2022/12/23 10:42:55;;;;;;;18.87;13.43;;;6.70;99.90;;;6.59;81.07;99143.00;5019433;28;20245;-67
2022/12/23 10:45:41;;;;;;;24.73;15.73;;;6.80;99.90;;;6.59;80.93;99143.00;5020170;28;20203;-67
2022/12/23 10:48:27;;;;;;;18.60;13.30;;;6.70;99.90;;;6.57;80.95;99150.72;5026942;28;20260;-66
2022/12/23 10:51:01;;;;;;;21.17;14.37;;;6.70;99.90;;;6.56;80.97;99146.47;5024568;28;20719;-68
2022/12/23 10:53:37;;;;;;;21.53;14.47;;;6.70;99.90;;;6.58;81.07;99149.84;5021199;28;20333;-66
2022/12/23 10:56:07;;;;;;;20.63;14.03;;;6.70;99.90;;;6.58;80.99;99157.50;5026216;28;21040;-66
2022/12/23 10:58:41;;;;;;;23.13;14.93;;;6.70;99.90;;;6.54;81.19;99145.63;5025925;28;20238;-68
2022/12/23 11:01:14;;;;;;;19.73;14.23;;;6.70;99.90;;;6.54;80.62;99143.06;5029231;28;20677;-68
2022/12/23 11:04:01;;;;;;;23.87;15.47;;;6.70;99.90;;;6.50;81.57;99133.72;5025608;28;20507;-66
2022/12/23 11:06:32;;;;;;;21.37;14.60;;;6.70;99.90;;;6.50;81.32;99129.44;5018486;28;20202;-66